Time;durP1;ratioP1;P1;durP2;ratioP2;P2;SDS_P1;SDS_P2;PMS_P1;PMS_P2;Temp;Humidity;BMP_temperature;BMP_pressure;BME280_temperature;BME280_humidity;BME280_pressure;Samples;Min_cycle;Max_cycle;Signal;HPM_P1;HPM_P2
2023/12/28 00:00:43;;;;;;;2.47;1.58;;;9.40;99.90;;;;;;5033838;28;20045;-71
2023/12/28 00:03:10;;;;;;;2.58;1.33;;;9.50;99.90;;;;;;5034105;28;20068;-70
2023/12/28 00:05:35;;;;;;;2.33;1.70;;;9.50;99.90;;;;;;5029789;28;20389;-71
2023/12/28 00:08:01;;;;;;;4.38;1.20;;;9.60;99.90;;;;;;5017945;28;20103;-71
2023/12/28 00:10:29;;;;;;;1.90;1.27;;;9.60;99.90;;;;;;5034711;28;20397;-70
2023/12/28 00:12:54;;;;;;;3.42;1.10;;;9.60;99.90;;;;;;5027340;28;20042;-70
2023/12/28 00:15:21;;;;;;;6.47;1.50;;;9.60;99.90;;;;;;5027326;28;20124;-70
2023/12/28 00:17:47;;;;;;;2.60;1.15;;;9.60;99.90;;;;;;5034052;28;20115;-71
2023/12/28 00:20:13;;;;;;;1.60;0.85;;;9.60;99.90;;;;;;5018059;28;20080;-70
2023/12/28 00:22:39;;;;;;;1.58;1.02;;;9.70;99.90;;;;;;5030046;28;20033;-71
2023/12/28 00:25:14;;;;;;;2.28;1.27;;;9.70;99.90;;;;;;5034116;28;20540;-71
2023/12/28 00:27:40;;;;;;;5.63;1.15;;;9.70;99.90;;;;;;5026069;28;20120;-71
2023/12/28 00:30:06;;;;;;;1.75;0.88;;;9.60;99.90;;;;;;5033047;28;20444;-71
2023/12/28 00:32:32;;;;;;;7.72;1.05;;;9.70;99.90;;;;;;5040481;28;20042;-71
2023/12/28 00:34:57;;;;;;;2.80;1.40;;;9.70;99.90;;;;;;5035054;28;20048;-74
2023/12/28 00:37:23;;;;;;;1.88;0.88;;;9.70;99.90;;;;;;5018890;28;20046;-71
2023/12/28 00:39:50;;;;;;;2.60;1.20;;;9.70;99.90;;;;;;5031001;28;20587;-72
2023/12/28 00:42:19;;;;;;;1.77;0.95;;;9.60;99.90;;;;;;5066994;28;20048;-73
2023/12/28 00:44:45;;;;;;;5.55;1.45;;;9.60;99.90;;;;;;5022116;28;20124;-72
2023/12/28 00:47:11;;;;;;;9.15;1.65;;;9.60;99.90;;;;;;5033517;28;20125;-71
2023/12/28 00:49:36;;;;;;;1.90;1.38;;;9.60;99.90;;;;;;5037764;28;20033;-71
2023/12/28 00:52:02;;;;;;;5.78;1.40;;;9.50;99.90;;;;;;5029976;28;20041;-71
2023/12/28 00:54:28;;;;;;;5.13;1.55;;;9.50;99.90;;;;;;5018934;28;20083;-71
2023/12/28 00:56:54;;;;;;;4.93;0.75;;;9.50;99.90;;;;;;5019183;28;20041;-71
2023/12/28 00:59:20;;;;;;;3.13;1.40;;;9.50;99.90;;;;;;5026361;28;20053;-71
2023/12/28 01:01:45;;;;;;;4.15;1.20;;;9.40;99.90;;;;;;5031143;28;20048;-71
2023/12/28 01:04:11;;;;;;;6.50;1.67;;;9.50;99.90;;;;;;5037111;28;20116;-71
2023/12/28 01:06:37;;;;;;;1.60;1.27;;;9.40;99.90;;;;;;5035415;28;20521;-71
2023/12/28 01:09:03;;;;;;;2.15;1.15;;;9.40;99.90;;;;;;5028046;28;20741;-71
2023/12/28 01:11:28;;;;;;;1.08;0.63;;;9.30;99.90;;;;;;5031793;28;20041;-71
2023/12/28 01:13:54;;;;;;;5.75;1.88;;;9.40;99.90;;;;;;5034435;28;20512;-72
2023/12/28 01:16:20;;;;;;;2.95;1.10;;;9.30;99.90;;;;;;5034139;28;20412;-71
2023/12/28 01:18:46;;;;;;;8.10;1.67;;;9.30;99.90;;;;;;5032255;28;20041;-71
2023/12/28 01:21:12;;;;;;;9.88;0.98;;;9.30;99.90;;;;;;5040820;28;20044;-71
2023/12/28 01:23:38;;;;;;;2.28;0.65;;;9.30;99.90;;;;;;5028620;28;20063;-71
2023/12/28 01:26:04;;;;;;;2.53;1.13;;;9.30;99.90;;;;;;5032260;28;20049;-71
2023/12/28 01:28:30;;;;;;;2.67;1.42;;;9.30;99.90;;;;;;5032369;28;20310;-71
2023/12/28 01:30:56;;;;;;;4.35;1.05;;;9.30;99.90;;;;;;5033186;28;20057;-71
2023/12/28 01:33:21;;;;;;;1.65;1.05;;;9.30;99.90;;;;;;5034083;28;20040;-72
2023/12/28 01:35:47;;;;;;;2.40;1.00;;;9.30;99.90;;;;;;5040502;28;20126;-72
2023/12/28 01:38:13;;;;;;;1.42;0.63;;;9.30;99.90;;;;;;5037413;28;20521;-71
2023/12/28 01:40:44;;;;;;;2.20;0.50;;;9.30;99.90;;;;;;5036095;28;20055;-72
2023/12/28 01:43:10;;;;;;;5.35;1.10;;;9.20;99.90;;;;;;5034977;28;20051;-72
2023/12/28 01:45:36;;;;;;;1.75;1.13;;;9.20;99.90;;;;;;5037907;28;20041;-71
2023/12/28 01:48:02;;;;;;;7.85;1.00;;;9.20;99.90;;;;;;5035956;28;20042;-71
2023/12/28 01:50:28;;;;;;;1.77;0.75;;;9.10;99.90;;;;;;5032087;28;20091;-71
2023/12/28 01:52:56;;;;;;;2.50;0.90;;;9.10;99.90;;;;;;5015054;28;20517;-71
2023/12/28 01:55:22;;;;;;;3.58;1.23;;;9.10;99.90;;;;;;5031236;28;20041;-71
2023/12/28 01:57:48;;;;;;;3.55;1.00;;;9.10;99.90;;;;;;5032102;28;20038;-71
2023/12/28 02:00:14;;;;;;;4.15;1.40;;;9.20;99.90;;;;;;5035880;28;20041;-71
2023/12/28 02:02:41;;;;;;;1.42;0.93;;;9.20;99.90;;;;;;5031567;28;20041;-70
2023/12/28 02:05:09;;;;;;;2.08;1.15;;;9.20;99.90;;;;;;5023198;28;20385;-72
2023/12/28 02:07:36;;;;;;;3.63;1.05;;;9.20;99.90;;;;;;5047545;28;20053;-71
2023/12/28 02:10:02;;;;;;;9.35;1.27;;;9.20;99.90;;;;;;5018921;28;20099;-70
2023/12/28 02:12:28;;;;;;;2.35;1.05;;;9.20;99.90;;;;;;5035375;28;20447;-72
2023/12/28 02:14:54;;;;;;;4.47;1.23;;;9.30;99.90;;;;;;5022597;28;20083;-71
2023/12/28 02:17:28;;;;;;;1.05;0.73;;;9.30;99.90;;;;;;5035996;28;20041;-72
2023/12/28 02:19:55;;;;;;;8.80;1.25;;;9.30;99.90;;;;;;5035069;28;20033;-71
2023/12/28 02:22:24;;;;;;;2.40;0.90;;;9.30;99.90;;;;;;5043789;28;20390;-71
2023/12/28 02:25:02;;;;;;;3.38;0.95;;;9.30;99.90;;;;;;5061185;28;20485;-71
2023/12/28 02:27:28;;;;;;;5.10;0.90;;;9.30;99.90;;;;;;5014068;28;20039;-71
2023/12/28 02:29:55;;;;;;;1.15;0.93;;;9.40;99.90;;;;;;5010368;28;20041;-72
2023/12/28 02:32:25;;;;;;;11.25;1.90;;;9.40;99.90;;;;;;5018985;28;20041;-71
2023/12/28 02:34:58;;;;;;;4.45;1.00;;;9.40;99.90;;;;;;5027283;28;20656;-70
2023/12/28 02:37:25;;;;;;;5.47;1.13;;;9.50;99.90;;;;;;5034473;28;20049;-72
2023/12/28 02:39:53;;;;;;;12.90;1.65;;;9.50;99.90;;;;;;5032452;28;20099;-71
2023/12/28 02:42:19;;;;;;;3.35;1.15;;;9.50;99.90;;;;;;5034718;28;20049;-71
2023/12/28 02:44:45;;;;;;;2.25;0.90;;;9.60;99.90;;;;;;5034239;28;20046;-71
2023/12/28 02:47:10;;;;;;;4.78;1.02;;;9.60;99.90;;;;;;5030515;28;20046;-71
2023/12/28 02:49:36;;;;;;;2.92;0.80;;;9.60;99.90;;;;;;5028205;28;20037;-71
2023/12/28 02:52:02;;;;;;;1.83;0.65;;;9.70;99.90;;;;;;5032676;28;20037;-72
2023/12/28 02:54:28;;;;;;;1.50;0.82;;;9.70;99.90;;;;;;5034190;28;20029;-71
2023/12/28 02:56:54;;;;;;;1.35;0.98;;;9.70;99.90;;;;;;5035113;28;20040;-70
2023/12/28 02:59:20;;;;;;;8.00;0.90;;;9.70;99.90;;;;;;5038306;28;20037;-71
2023/12/28 03:01:45;;;;;;;6.60;1.40;;;9.70;99.90;;;;;;5063820;28;20056;-71
2023/12/28 03:04:11;;;;;;;1.88;1.00;;;9.70;99.90;;;;;;5030554;28;20117;-69
2023/12/28 03:06:39;;;;;;;4.55;1.02;;;9.70;99.90;;;;;;5036005;28;20568;-71
2023/12/28 03:09:05;;;;;;;2.65;0.63;;;9.70;99.90;;;;;;5040351;28;20049;-69
2023/12/28 03:11:31;;;;;;;2.35;0.75;;;9.70;99.90;;;;;;5030202;28;20367;-70
2023/12/28 03:13:56;;;;;;;2.83;0.80;;;9.70;99.90;;;;;;5029949;28;20048;-69
2023/12/28 03:16:22;;;;;;;3.78;1.30;;;9.80;99.90;;;;;;5021610;28;20037;-72
2023/12/28 03:18:48;;;;;;;4.63;0.70;;;9.80;99.90;;;;;;5039019;28;20038;-71
2023/12/28 03:21:14;;;;;;;3.83;1.05;;;9.80;99.90;;;;;;5017568;28;20501;-72
2023/12/28 03:23:39;;;;;;;5.10;1.42;;;9.80;99.90;;;;;;5030126;28;20401;-70
2023/12/28 03:26:05;;;;;;;5.40;1.80;;;9.90;99.90;;;;;;5022853;28;20052;-71
2023/12/28 03:28:31;;;;;;;5.05;1.55;;;9.90;99.90;;;;;;5036857;28;20069;-71
2023/12/28 03:30:58;;;;;;;2.25;0.90;;;9.90;99.90;;;;;;5034077;28;20072;-71
2023/12/28 03:33:23;;;;;;;8.10;1.05;;;9.90;99.90;;;;;;5029589;28;20052;-72
2023/12/28 03:35:50;;;;;;;3.33;1.50;;;9.90;99.90;;;;;;5037234;28;20371;-71
2023/12/28 03:38:16;;;;;;;7.45;1.48;;;9.90;99.90;;;;;;5034211;28;20053;-71
2023/12/28 03:40:43;;;;;;;6.43;0.80;;;10.00;99.90;;;;;;5033047;28;20049;-70
2023/12/28 03:43:08;;;;;;;4.05;0.90;;;10.00;99.90;;;;;;5014719;28;20053;-71
2023/12/28 03:45:34;;;;;;;1.98;0.90;;;9.90;99.90;;;;;;5029810;28;20071;-71
2023/12/28 03:48:00;;;;;;;3.08;0.65;;;9.90;99.90;;;;;;5029435;28;20118;-71
2023/12/28 03:50:26;;;;;;;3.35;1.08;;;10.00;99.90;;;;;;5029087;28;20482;-69
2023/12/28 03:52:51;;;;;;;4.75;0.90;;;10.00;99.90;;;;;;5029904;28;20038;-72
2023/12/28 03:55:17;;;;;;;5.72;1.00;;;10.00;99.90;;;;;;5029551;28;20045;-72
2023/12/28 03:57:46;;;;;;;1.10;0.80;;;10.00;99.90;;;;;;5011598;28;20041;-69
2023/12/28 04:00:12;;;;;;;1.27;0.90;;;10.00;99.90;;;;;;5039490;28;20057;-70
2023/12/28 04:02:37;;;;;;;1.67;1.25;;;9.90;99.90;;;;;;5029487;28;20085;-70
2023/12/28 04:05:04;;;;;;;5.47;0.80;;;9.90;99.90;;;;;;5033792;28;20527;-72
2023/12/28 04:07:29;;;;;;;3.28;0.88;;;9.90;99.90;;;;;;5016857;28;20072;-71
2023/12/28 04:09:56;;;;;;;1.95;1.20;;;9.90;99.90;;;;;;5029337;28;20084;-72
2023/12/28 04:12:22;;;;;;;8.45;1.00;;;9.90;99.90;;;;;;5033474;28;20413;-71
2023/12/28 04:14:47;;;;;;;7.70;0.90;;;9.80;99.90;;;;;;5033129;28;20095;-72
2023/12/28 04:17:13;;;;;;;4.82;1.27;;;9.80;99.90;;;;;;5035147;28;20053;-72
2023/12/28 04:19:39;;;;;;;2.85;0.60;;;9.80;99.90;;;;;;5039813;28;20041;-72
2023/12/28 04:22:05;;;;;;;5.80;0.82;;;9.80;99.90;;;;;;5029414;28;20041;-71
2023/12/28 04:24:30;;;;;;;1.63;0.43;;;9.70;99.90;;;;;;5017131;28;20620;-71
2023/12/28 04:26:56;;;;;;;3.08;1.17;;;9.80;99.90;;;;;;5013180;28;20068;-70
2023/12/28 04:29:22;;;;;;;7.38;1.15;;;9.80;99.90;;;;;;5021425;28;20056;-71
2023/12/28 04:31:48;;;;;;;1.45;0.52;;;9.80;99.90;;;;;;5029054;28;20045;-72
2023/12/28 04:34:13;;;;;;;2.13;0.50;;;9.80;99.90;;;;;;5029085;28;20647;-70
2023/12/28 04:36:42;;;;;;;6.57;1.33;;;9.80;99.90;;;;;;5028548;28;20041;-73
2023/12/28 04:39:07;;;;;;;2.65;0.90;;;9.80;99.90;;;;;;5029474;28;20148;-71
2023/12/28 04:41:33;;;;;;;4.20;1.10;;;9.90;99.90;;;;;;5028137;28;20132;-71
2023/12/28 04:43:59;;;;;;;5.22;1.27;;;9.90;99.90;;;;;;5029733;28;20052;-71
2023/12/28 04:46:25;;;;;;;11.18;0.98;;;9.90;99.90;;;;;;5024885;28;20065;-72
2023/12/28 04:48:50;;;;;;;6.95;1.77;;;9.90;99.90;;;;;;5032787;28;20042;-71
2023/12/28 04:51:16;;;;;;;3.08;0.77;;;10.00;99.90;;;;;;5017896;28;20179;-72
2023/12/28 04:53:42;;;;;;;3.45;0.80;;;10.10;99.90;;;;;;5042748;28;20045;-72
2023/12/28 04:56:07;;;;;;;3.70;1.15;;;10.10;99.90;;;;;;5020318;28;20049;-71
2023/12/28 04:58:33;;;;;;;2.13;0.75;;;10.10;99.90;;;;;;5032413;28;20044;-70
2023/12/28 05:01:01;;;;;;;3.90;1.08;;;10.10;99.90;;;;;;5036748;28;20037;-70
2023/12/28 05:03:27;;;;;;;1.95;0.82;;;10.20;99.90;;;;;;5019907;28;20043;-72
2023/12/28 05:05:53;;;;;;;2.65;0.60;;;10.20;99.90;;;;;;5032747;28;20120;-69
2023/12/28 05:08:19;;;;;;;6.15;1.25;;;10.20;99.90;;;;;;5027915;28;20061;-73
2023/12/28 05:10:44;;;;;;;3.30;1.27;;;10.20;99.90;;;;;;5032298;28;20061;-73
2023/12/28 05:13:10;;;;;;;6.30;0.98;;;10.20;99.90;;;;;;5066059;28;20052;-71
2023/12/28 05:15:36;;;;;;;7.53;1.83;;;10.20;99.90;;;;;;5024594;28;20048;-72
2023/12/28 05:18:02;;;;;;;8.13;1.45;;;10.20;99.90;;;;;;5074284;28;20681;-71
2023/12/28 05:20:28;;;;;;;3.60;0.68;;;10.20;99.90;;;;;;5065333;28;20072;-72
2023/12/28 05:22:53;;;;;;;1.38;0.85;;;10.20;99.90;;;;;;5040562;28;20041;-72
2023/12/28 05:25:19;;;;;;;3.80;0.50;;;10.20;99.90;;;;;;5032020;28;20129;-72
2023/12/28 05:27:45;;;;;;;4.85;0.63;;;10.20;99.90;;;;;;5034643;28;20105;-72
2023/12/28 05:30:11;;;;;;;3.38;0.88;;;10.20;99.90;;;;;;5019564;28;20041;-69
2023/12/28 05:32:37;;;;;;;3.22;1.10;;;10.20;99.90;;;;;;5022411;28;20041;-69
2023/12/28 05:35:03;;;;;;;2.33;0.85;;;10.20;99.90;;;;;;5039908;28;20087;-71
2023/12/28 05:37:29;;;;;;;7.18;1.35;;;10.20;99.90;;;;;;5034995;28;20047;-72
2023/12/28 05:39:55;;;;;;;4.55;1.23;;;10.20;99.90;;;;;;5033087;28;20073;-70
2023/12/28 05:42:21;;;;;;;3.33;0.77;;;10.30;99.90;;;;;;5035690;28;20092;-72
2023/12/28 05:44:46;;;;;;;7.03;1.00;;;10.30;99.90;;;;;;5041168;28;20051;-72
2023/12/28 05:47:12;;;;;;;3.08;1.17;;;10.30;99.90;;;;;;5047892;28;20045;-73
2023/12/28 05:49:38;;;;;;;6.10;1.30;;;10.30;99.90;;;;;;5032123;28;20072;-70
2023/12/28 05:52:04;;;;;;;3.47;1.13;;;10.30;99.90;;;;;;5036233;28;20061;-72
2023/12/28 05:54:30;;;;;;;6.45;1.08;;;10.30;99.90;;;;;;5031520;28;20490;-68
2023/12/28 05:56:55;;;;;;;1.08;0.82;;;10.30;99.90;;;;;;5032976;28;20050;-70
2023/12/28 05:59:22;;;;;;;5.30;0.88;;;10.30;99.90;;;;;;5037419;28;20033;-73
2023/12/28 06:01:48;;;;;;;2.58;1.40;;;10.30;99.90;;;;;;5035684;28;20076;-71
2023/12/28 06:04:14;;;;;;;12.85;1.67;;;10.30;99.90;;;;;;5030164;28;20077;-72
2023/12/28 06:06:40;;;;;;;9.85;1.17;;;10.40;99.90;;;;;;5014946;28;20095;-70
2023/12/28 06:09:06;;;;;;;4.97;1.35;;;10.40;99.90;;;;;;5038506;28;20393;-72
2023/12/28 06:11:31;;;;;;;4.88;0.90;;;10.40;99.90;;;;;;5014631;28;20041;-70
2023/12/28 06:13:57;;;;;;;5.50;0.95;;;10.30;99.90;;;;;;5035516;28;20042;-72
2023/12/28 06:16:23;;;;;;;4.50;1.17;;;10.40;99.90;;;;;;5014877;28;20038;-71
2023/12/28 06:18:49;;;;;;;4.72;1.55;;;10.40;99.90;;;;;;5031236;28;20120;-72
2023/12/28 06:21:14;;;;;;;5.47;0.77;;;10.40;99.90;;;;;;5035690;28;20076;-73
2023/12/28 06:23:40;;;;;;;2.55;1.45;;;10.40;99.90;;;;;;5030609;28;20111;-71
2023/12/28 06:26:06;;;;;;;8.73;1.13;;;10.50;99.90;;;;;;5013423;28;20124;-73
2023/12/28 06:28:32;;;;;;;2.58;1.40;;;10.50;99.90;;;;;;5033913;28;20041;-73
2023/12/28 06:31:00;;;;;;;7.97;1.25;;;10.50;99.90;;;;;;5038934;28;20048;-70
2023/12/28 06:33:28;;;;;;;7.50;0.95;;;10.50;99.90;;;;;;5034999;28;20151;-71
2023/12/28 06:35:54;;;;;;;7.45;1.15;;;10.50;99.90;;;;;;5030628;28;20111;-73
2023/12/28 06:38:20;;;;;;;3.63;1.35;;;10.50;99.90;;;;;;5029873;28;20521;-72
2023/12/28 06:40:46;;;;;;;4.32;0.77;;;10.50;99.90;;;;;;5033867;28;20041;-71
2023/12/28 06:43:11;;;;;;;8.55;2.05;;;10.50;99.90;;;;;;5043491;28;20038;-71
2023/12/28 06:45:38;;;;;;;0.98;0.60;;;10.50;99.90;;;;;;5063765;28;20052;-73
2023/12/28 06:48:04;;;;;;;3.85;0.70;;;10.50;99.90;;;;;;5025695;28;20579;-70
2023/12/28 06:50:30;;;;;;;2.88;0.80;;;10.50;99.90;;;;;;5039159;28;20412;-72
2023/12/28 06:52:57;;;;;;;3.70;0.60;;;10.50;99.90;;;;;;5042856;28;20045;-69
2023/12/28 06:55:23;;;;;;;4.20;0.90;;;10.50;99.90;;;;;;5034230;28;20037;-72
2023/12/28 06:57:48;;;;;;;6.25;0.95;;;10.50;99.90;;;;;;5030396;28;20478;-71
2023/12/28 07:00:14;;;;;;;5.40;0.75;;;10.60;99.90;;;;;;5034310;28;20132;-71
2023/12/28 07:02:40;;;;;;;5.20;0.70;;;10.60;99.90;;;;;;5013723;28;20038;-71
2023/12/28 07:05:06;;;;;;;6.47;1.35;;;10.60;99.90;;;;;;5030043;28;20053;-72
2023/12/28 07:07:32;;;;;;;2.95;1.27;;;10.60;99.90;;;;;;5033307;28;20053;-72
2023/12/28 07:09:58;;;;;;;8.10;0.70;;;10.60;99.90;;;;;;5031769;28;20052;-72
2023/12/28 07:12:24;;;;;;;9.13;1.75;;;10.60;99.90;;;;;;5033106;28;20397;-73
2023/12/28 07:14:49;;;;;;;7.50;1.60;;;10.60;99.90;;;;;;5034302;28;20041;-72
2023/12/28 07:17:17;;;;;;;4.03;0.80;;;10.60;99.90;;;;;;5030402;28;20045;-70
2023/12/28 07:19:44;;;;;;;3.22;0.95;;;10.60;99.90;;;;;;5034193;28;20050;-73
2023/12/28 07:22:09;;;;;;;1.95;0.80;;;10.60;99.90;;;;;;5032402;28;20619;-72
2023/12/28 07:24:35;;;;;;;6.00;1.08;;;10.60;99.90;;;;;;5018016;28;20065;-71
2023/12/28 07:27:01;;;;;;;3.22;0.80;;;10.50;99.90;;;;;;5030796;28;20041;-72
2023/12/28 07:29:27;;;;;;;8.18;0.95;;;10.50;99.90;;;;;;5031386;28;20045;-73
2023/12/28 07:31:54;;;;;;;5.38;1.60;;;10.50;99.90;;;;;;5029689;28;20045;-72
2023/12/28 07:34:20;;;;;;;5.90;1.83;;;10.50;99.90;;;;;;5029573;28;20048;-72
2023/12/28 07:36:45;;;;;;;8.25;2.03;;;10.50;99.90;;;;;;5032905;28;20045;-74
2023/12/28 07:39:11;;;;;;;6.20;0.88;;;10.60;99.90;;;;;;5031402;28;20081;-73
2023/12/28 07:41:37;;;;;;;9.52;1.70;;;10.60;99.90;;;;;;5031325;28;20095;-71
2023/12/28 07:44:03;;;;;;;4.80;1.35;;;10.60;99.90;;;;;;5023036;28;20497;-72
2023/12/28 07:46:29;;;;;;;8.35;1.15;;;10.60;99.90;;;;;;5034154;28;20041;-72
2023/12/28 07:48:54;;;;;;;11.43;1.63;;;10.60;99.90;;;;;;5033800;28;20041;-71
2023/12/28 07:51:20;;;;;;;2.28;0.93;;;10.60;99.90;;;;;;5033383;28;20052;-71
2023/12/28 07:53:46;;;;;;;10.32;2.03;;;10.70;99.90;;;;;;5029958;28;20493;-72
2023/12/28 07:56:12;;;;;;;4.72;0.90;;;10.60;99.90;;;;;;5029052;28;20095;-72
2023/12/28 07:58:39;;;;;;;6.55;1.73;;;10.60;99.90;;;;;;5033655;28;20041;-72
2023/12/28 08:01:10;;;;;;;2.42;1.10;;;10.60;99.90;;;;;;5028353;28;20060;-72
2023/12/28 08:03:36;;;;;;;14.65;2.13;;;10.60;99.90;;;;;;5029752;28;20102;-71
2023/12/28 08:06:03;;;;;;;9.18;1.63;;;10.70;99.90;;;;;;5029117;28;20073;-71
2023/12/28 08:08:29;;;;;;;9.48;1.40;;;10.70;99.90;;;;;;5027668;28;20057;-70
2023/12/28 08:10:54;;;;;;;8.07;1.45;;;10.70;99.90;;;;;;5032703;28;20042;-70
2023/12/28 08:13:20;;;;;;;11.75;1.55;;;10.70;99.90;;;;;;5012902;28;20041;-70
2023/12/28 08:15:46;;;;;;;3.30;0.82;;;10.70;99.90;;;;;;5033577;28;20041;-70
2023/12/28 08:18:12;;;;;;;3.05;1.20;;;10.70;99.90;;;;;;5016278;28;20045;-70
2023/12/28 08:20:38;;;;;;;9.30;1.33;;;10.70;99.90;;;;;;5026467;28;20676;-73
2023/12/28 08:23:04;;;;;;;9.45;1.75;;;10.70;99.90;;;;;;5028896;28;20045;-69
2023/12/28 08:25:30;;;;;;;4.78;1.92;;;10.80;99.90;;;;;;5018431;28;20092;-70
2023/12/28 08:27:55;;;;;;;3.17;1.00;;;10.80;99.90;;;;;;5016477;28;20034;-72
2023/12/28 08:30:21;;;;;;;8.73;2.30;;;10.80;99.90;;;;;;5038642;28;20485;-71
2023/12/28 08:32:47;;;;;;;7.63;1.95;;;10.80;99.90;;;;;;5028837;28;20187;-70
2023/12/28 08:35:13;;;;;;;11.02;1.65;;;10.80;99.90;;;;;;5023626;28;20069;-71
2023/12/28 08:37:39;;;;;;;12.32;1.02;;;10.80;99.90;;;;;;5032378;28;20056;-71
2023/12/28 08:40:05;;;;;;;10.82;2.15;;;10.90;99.90;;;;;;5029974;28;20556;-70
2023/12/28 08:42:31;;;;;;;6.18;1.35;;;10.90;99.90;;;;;;5028791;28;20481;-72
2023/12/28 08:44:57;;;;;;;5.85;0.85;;;10.90;99.90;;;;;;5032920;28;20044;-72
2023/12/28 08:47:23;;;;;;;3.83;1.17;;;10.90;99.90;;;;;;5029269;28;20129;-72
2023/12/28 08:49:49;;;;;;;7.32;1.67;;;10.90;99.90;;;;;;5032679;28;20041;-70
2023/12/28 08:52:15;;;;;;;5.60;1.15;;;10.90;99.90;;;;;;5019888;28;20407;-72
2023/12/28 08:54:41;;;;;;;5.68;1.48;;;10.90;99.90;;;;;;5022296;28;20045;-71
2023/12/28 08:57:07;;;;;;;3.17;1.08;;;10.90;99.90;;;;;;5024375;28;20049;-71
2023/12/28 08:59:36;;;;;;;8.73;1.10;;;10.90;99.90;;;;;;5050070;28;20038;-70
2023/12/28 09:02:02;;;;;;;5.13;0.90;;;10.90;99.90;;;;;;5039413;28;20178;-70
2023/12/28 09:04:28;;;;;;;9.48;1.15;;;10.90;99.90;;;;;;5020537;28;20042;-70
2023/12/28 09:06:54;;;;;;;10.30;2.50;;;10.90;99.90;;;;;;5018579;28;20100;-71
2023/12/28 09:09:20;;;;;;;7.97;1.25;;;10.90;99.90;;;;;;5021597;28;20053;-72
2023/12/28 09:11:45;;;;;;;6.22;1.40;;;10.90;99.90;;;;;;5021012;28;20041;-72
2023/12/28 09:14:11;;;;;;;5.07;2.08;;;10.80;99.90;;;;;;5012245;28;20136;-71
2023/12/28 09:16:39;;;;;;;13.82;2.15;;;10.90;99.90;;;;;;5005390;28;20071;-70
2023/12/28 09:19:04;;;;;;;5.15;1.20;;;10.90;99.90;;;;;;5015967;28;20049;-69
2023/12/28 09:21:30;;;;;;;5.18;1.30;;;10.90;99.90;;;;;;5015418;28;20034;-70
2023/12/28 09:23:56;;;;;;;5.75;1.27;;;10.90;99.90;;;;;;5018707;28;20050;-71
2023/12/28 09:26:22;;;;;;;4.38;1.45;;;10.90;99.90;;;;;;5020522;28;20496;-71
2023/12/28 09:28:47;;;;;;;10.10;2.13;;;11.00;99.90;;;;;;5020455;28;20052;-70
2023/12/28 09:31:13;;;;;;;4.15;1.05;;;11.00;99.90;;;;;;5046797;28;20047;-70
2023/12/28 09:33:39;;;;;;;3.95;1.13;;;11.00;99.90;;;;;;5020456;28;20041;-70
2023/12/28 09:36:06;;;;;;;4.78;1.13;;;11.00;99.90;;;;;;5024679;28;20044;-70
2023/12/28 09:38:31;;;;;;;12.65;2.85;;;11.10;99.90;;;;;;5020382;28;20103;-71
2023/12/28 09:41:03;;;;;;;1.65;0.90;;;11.10;99.90;;;;;;5021857;28;20045;-71
2023/12/28 09:43:36;;;;;;;2.33;0.93;;;11.10;99.90;;;;;;5024874;28;20129;-70
2023/12/28 09:46:11;;;;;;;7.75;1.05;;;11.10;99.90;;;;;;5036782;28;20419;-70
2023/12/28 09:48:38;;;;;;;6.00;2.08;;;11.10;99.90;;;;;;5008563;28;20041;-69
2023/12/28 09:51:05;;;;;;;8.55;1.20;;;11.10;99.90;;;;;;5020438;28;20048;-68
2023/12/28 09:53:31;;;;;;;4.95;1.25;;;11.10;99.90;;;;;;5020384;28;20518;-69
2023/12/28 09:55:58;;;;;;;6.28;0.95;;;11.10;99.90;;;;;;5018362;28;20128;-71
2023/12/28 09:58:25;;;;;;;6.80;1.45;;;11.10;99.90;;;;;;5025654;28;20486;-70
2023/12/28 10:00:51;;;;;;;2.85;1.77;;;11.20;99.90;;;;;;5051378;28;20124;-68
2023/12/28 10:03:17;;;;;;;1.80;0.73;;;11.20;99.90;;;;;;5051009;28;20116;-71
2023/12/28 10:05:45;;;;;;;3.92;1.15;;;11.20;99.90;;;;;;5023360;28;20072;-69
2023/12/28 10:08:15;;;;;;;8.90;0.80;;;11.10;99.90;;;;;;5008667;28;20107;-70
2023/12/28 10:10:42;;;;;;;5.03;1.20;;;11.20;99.90;;;;;;5055647;28;20624;-71
2023/12/28 10:13:09;;;;;;;7.47;1.38;;;11.20;99.90;;;;;;5020005;28;20044;-71
2023/12/28 10:15:36;;;;;;;10.77;1.95;;;11.10;99.90;;;;;;5006804;28;20115;-70
2023/12/28 10:18:02;;;;;;;4.68;1.00;;;11.20;99.90;;;;;;5017999;28;20134;-70
2023/12/28 10:20:29;;;;;;;4.63;0.80;;;11.20;99.90;;;;;;5055320;28;20120;-71
2023/12/28 10:22:55;;;;;;;5.03;0.98;;;11.20;99.90;;;;;;5054670;28;20108;-69
2023/12/28 10:25:21;;;;;;;6.38;1.50;;;11.30;99.90;;;;;;5024059;28;20085;-70
2023/12/28 10:27:52;;;;;;;9.15;1.52;;;11.30;99.90;;;;;;5023266;28;20056;-69
2023/12/28 10:30:19;;;;;;;2.85;1.35;;;11.40;99.90;;;;;;5023910;28;20490;-71
2023/12/28 10:32:46;;;;;;;8.38;1.60;;;11.40;99.90;;;;;;5019500;28;20520;-71
2023/12/28 10:35:12;;;;;;;4.75;1.85;;;11.30;99.90;;;;;;5006710;28;20410;-71
2023/12/28 10:37:41;;;;;;;2.80;1.38;;;11.30;99.90;;;;;;5038813;28;20053;-69
2023/12/28 10:40:10;;;;;;;6.18;1.42;;;11.20;99.90;;;;;;5006410;28;20052;-70
2023/12/28 10:42:45;;;;;;;4.97;1.25;;;11.30;99.90;;;;;;5022301;28;20048;-68
2023/12/28 10:45:11;;;;;;;11.77;1.95;;;11.20;99.90;;;;;;5050986;28;20128;-69
2023/12/28 10:47:38;;;;;;;9.30;1.92;;;11.20;99.90;;;;;;5015467;28;20129;-70
2023/12/28 10:50:05;;;;;;;5.28;1.38;;;11.20;99.90;;;;;;5023801;28;20750;-70
2023/12/28 10:52:33;;;;;;;11.13;1.67;;;11.10;99.90;;;;;;5007120;28;20037;-70
2023/12/28 10:55:29;;;;;;;6.80;0.60;;;11.10;99.90;;;;;;5018025;28;20037;-70
2023/12/28 10:58:04;;;;;;;6.55;1.63;;;11.10;99.90;;;;;;5022260;28;20076;-71
2023/12/28 11:00:36;;;;;;;1.85;0.75;;;11.10;99.90;;;;;;5040006;28;20048;-70
2023/12/28 11:03:04;;;;;;;4.72;0.90;;;11.10;99.90;;;;;;5051157;28;20128;-71
2023/12/28 11:05:32;;;;;;;13.88;1.65;;;11.10;99.90;;;;;;5040180;28;20053;-70
2023/12/28 11:08:00;;;;;;;6.45;1.05;;;11.10;99.90;;;;;;5005563;28;20071;-69
2023/12/28 11:10:29;;;;;;;9.50;1.10;;;11.10;99.90;;;;;;5019671;28;20079;-71
2023/12/28 11:12:56;;;;;;;4.67;1.30;;;11.10;99.90;;;;;;5015581;28;20045;-71
2023/12/28 11:15:23;;;;;;;8.27;1.90;;;11.10;99.90;;;;;;5023957;28;20037;-72
2023/12/28 11:17:59;;;;;;;6.85;1.42;;;11.10;99.90;;;;;;5016914;28;20038;-71
2023/12/28 11:20:25;;;;;;;7.28;1.08;;;11.10;99.90;;;;;;5018013;28;20065;-70
2023/12/28 11:22:52;;;;;;;3.88;1.65;;;11.10;99.90;;;;;;5051376;28;20053;-69
2023/12/28 11:25:18;;;;;;;4.35;0.93;;;11.10;99.90;;;;;;5022984;28;20106;-71
2023/12/28 11:27:46;;;;;;;7.57;2.00;;;11.20;99.90;;;;;;5021846;28;20038;-68
2023/12/28 11:30:13;;;;;;;3.90;1.23;;;11.20;99.90;;;;;;5022369;28;20091;-71
2023/12/28 11:32:42;;;;;;;3.95;1.00;;;11.20;99.90;;;;;;5023473;28;20057;-71
2023/12/28 11:35:11;;;;;;;4.22;1.08;;;11.20;99.90;;;;;;5040321;28;20513;-71
2023/12/28 11:37:40;;;;;;;11.48;1.42;;;11.20;99.90;;;;;;5005187;28;20045;-70
2023/12/28 11:40:16;;;;;;;16.27;2.58;;;11.30;99.90;;;;;;5022284;28;20080;-68
2023/12/28 11:42:53;;;;;;;11.23;1.17;;;11.30;99.90;;;;;;5022047;28;20046;-71
2023/12/28 11:45:20;;;;;;;3.13;1.48;;;11.40;99.90;;;;;;5023385;28;20056;-70
2023/12/28 11:47:46;;;;;;;6.70;1.58;;;11.30;99.90;;;;;;5022612;28;20042;-69
2023/12/28 11:50:12;;;;;;;10.45;1.45;;;11.40;99.90;;;;;;5023698;28;20037;-69
2023/12/28 11:52:38;;;;;;;5.05;1.55;;;11.40;99.90;;;;;;5005640;28;20029;-72
2023/12/28 11:55:05;;;;;;;4.75;1.08;;;11.40;99.90;;;;;;5007473;28;20556;-70
2023/12/28 11:57:31;;;;;;;6.65;1.40;;;11.40;99.90;;;;;;5019158;28;20551;-70
2023/12/28 11:59:58;;;;;;;3.17;0.98;;;11.40;99.90;;;;;;5047947;28;20053;-72
2023/12/28 12:02:25;;;;;;;9.40;1.77;;;11.30;99.90;;;;;;5015527;28;20502;-71
2023/12/28 12:04:52;;;;;;;9.02;1.42;;;11.30;99.90;;;;;;5051496;28;20052;-71
2023/12/28 12:07:17;;;;;;;9.20;2.33;;;11.40;99.90;;;;;;5047279;28;20397;-71
2023/12/28 12:09:44;;;;;;;8.80;2.47;;;11.30;99.90;;;;;;5022340;28;20043;-70
2023/12/28 12:12:10;;;;;;;7.97;1.70;;;11.30;99.90;;;;;;5023888;28;20049;-70
2023/12/28 12:14:36;;;;;;;5.35;2.20;;;11.30;99.90;;;;;;5017308;28;20055;-70
2023/12/28 12:17:02;;;;;;;6.20;1.33;;;11.30;99.90;;;;;;5018147;28;20053;-69
2023/12/28 12:19:28;;;;;;;3.45;1.00;;;11.20;99.90;;;;;;5018290;28;20044;-70
2023/12/28 12:21:55;;;;;;;8.27;1.35;;;11.20;99.90;;;;;;5017774;28;20363;-70
2023/12/28 12:24:21;;;;;;;10.25;1.98;;;11.20;99.90;;;;;;5050107;28;20052;-70
2023/12/28 12:26:48;;;;;;;9.25;1.33;;;11.20;99.90;;;;;;5021806;28;20501;-69
2023/12/28 12:29:17;;;;;;;7.90;1.20;;;11.10;99.90;;;;;;5022299;28;20037;-70
2023/12/28 12:31:45;;;;;;;10.15;1.50;;;11.10;99.90;;;;;;5022805;28;20402;-71
2023/12/28 12:34:12;;;;;;;2.88;1.33;;;11.20;99.90;;;;;;5039599;28;20057;-71
2023/12/28 12:36:38;;;;;;;11.27;1.15;;;11.20;99.90;;;;;;5052152;28;20073;-71
2023/12/28 12:39:08;;;;;;;8.85;2.05;;;11.20;99.90;;;;;;5020638;28;20132;-68
2023/12/28 12:41:34;;;;;;;4.88;0.95;;;11.20;99.90;;;;;;5019517;28;20042;-70
2023/12/28 12:44:00;;;;;;;2.78;1.45;;;11.20;99.90;;;;;;5018395;28;20482;-70
2023/12/28 12:46:27;;;;;;;7.72;1.17;;;11.20;99.90;;;;;;5015912;28;20379;-69